Terminal Aerodrome Forecast
Issued by NWS

Home | Current Version | Previous Version | Text Only | Print | Product List | Glossary On
Versions: 1 2 3 4 5 6 7 8 9 10 11 12 13 14 15 16 17 18
000
FTUS43 KDLH 222329
TAFHYR
TAF
KHYR 222329Z 2300/2324 16008KT P6SM SKC
     FM230200 17009KT P6SM BKN250 WS020/19040KT
     FM231000 19007KT P6SM BKN200
     FM231200 19006KT P6SM BKN110
     FM231600 19009G16KT P6SM BKN050=

USA.gov is the U.S. government's official web portal to all federal, state and local government web resources and services.